4NY6 weather

Station 237 Heliport
Clifton Springs, New York, United States

Public forecast

Using degrees Fahrenheit for public forecast. Weather courtesy of forecast.io.

Closest aviation weather report (METAR) to Station 237 Heliport

Closest report is Penn Yan Airport, 18.8 nm (34.8 km) SSE. Retrieved 2019/12/06 15:04 UTC (13 minutes ago):

KPEO 061504Z AUTO 20007KT 6SM -SN OVC031 01/M02 A2987 RMK AO2 P0000 T00111022

Closest aviation forecast (TAF) to Station 237 Heliport

Closest forecast is Greater Rochester International Airport, 24.1 nm (44.7 km) WNW. Retrieved 2019/12/06 12:22 UTC (3 hours ago):

TAF KROC 061120Z 0612/0712 17006KT 6SM -SN OVC050 FM061300 22008KT 1 1/2SM -SN OVC025 FM061700 32010KT 4SM -SHSN OVC007 FM062000 32012KT P6SM VCSH BKN012 FM070300 28010KT P6SM VCSH BKN025